Time;durP1;ratioP1;P1;durP2;ratioP2;P2;SDS_P1;SDS_P2;PMS_P1;PMS_P2;Temp;Humidity;BMP_temperature;BMP_pressure;BME280_temperature;BME280_humidity;BME280_pressure;Samples;Min_cycle;Max_cycle;Signal;HPM_P1;HPM_P2
2022/04/24 00:01:13;;;;;;;11.87;9.50;;;;;;;;;;5016206;28;20207;-37
2022/04/24 00:03:41;;;;;;;13.60;9.73;;;;;;;;;;5019760;28;20210;-35
2022/04/24 00:06:08;;;;;;;12.77;9.60;;;;;;;;;;5029402;28;20305;-35
2022/04/24 00:08:36;;;;;;;9.90;7.67;;;;;;;;;;5018667;28;20211;-40
2022/04/24 00:11:03;;;;;;;13.77;9.30;;;;;;;;;;5032191;28;20199;-39
2022/04/24 00:13:37;;;;;;;12.17;9.47;;;;;;;;;;5031695;28;20222;-40
2022/04/24 00:16:04;;;;;;;13.57;9.50;;;;;;;;;;5026632;28;20225;-39
2022/04/24 00:18:31;;;;;;;17.77;10.53;;;;;;;;;;5022328;28;20211;-40
2022/04/24 00:20:59;;;;;;;8.83;7.50;;;;;;;;;;5023927;28;20198;-38
2022/04/24 00:23:26;;;;;;;11.43;9.00;;;;;;;;;;5014498;28;20207;-33
2022/04/24 00:25:54;;;;;;;13.43;9.47;;;;;;;;;;5022878;28;20223;-43
2022/04/24 00:28:21;;;;;;;13.73;9.30;;;;;;;;;;5031452;28;20209;-38
2022/04/24 00:30:48;;;;;;;12.60;9.63;;;;;;;;;;5026278;28;20213;-38
2022/04/24 00:33:15;;;;;;;12.27;8.13;;;;;;;;;;5017038;28;20230;-33
2022/04/24 00:35:42;;;;;;;12.93;9.97;;;;;;;;;;5029120;28;20227;-40
2022/04/24 00:38:09;;;;;;;13.37;8.77;;;;;;;;;;5021733;28;20205;-40
2022/04/24 00:40:37;;;;;;;13.13;9.90;;;;;;;;;;5022938;28;20207;-37
2022/04/24 00:43:05;;;;;;;13.00;9.80;;;;;;;;;;5031814;28;20207;-36
2022/04/24 00:45:32;;;;;;;13.17;9.60;;;;;;;;;;5025415;28;20235;-37
2022/04/24 00:47:59;;;;;;;12.70;9.60;;;;;;;;;;5023680;28;20211;-34
2022/04/24 00:50:26;;;;;;;11.83;7.90;;;;;;;;;;5024213;28;20204;-34
2022/04/24 00:52:54;;;;;;;11.73;8.37;;;;;;;;;;5014564;28;20207;-37
2022/04/24 00:55:24;;;;;;;12.10;8.27;;;;;;;;;;5026515;28;20700;-34
2022/04/24 00:57:51;;;;;;;9.77;7.53;;;;;;;;;;5030933;28;20230;-40
2022/04/24 01:00:20;;;;;;;12.17;8.17;;;;;;;;;;5022769;28;20501;-37
2022/04/24 01:02:47;;;;;;;11.53;8.80;;;;;;;;;;5024589;28;20280;-31
2022/04/24 01:05:17;;;;;;;11.93;9.07;;;;;;;;;;5022544;28;20218;-41
2022/04/24 01:07:44;;;;;;;11.40;9.00;;;;;;;;;;5018570;28;20202;-33
2022/04/24 01:10:12;;;;;;;15.10;10.47;;;;;;;;;;5014544;28;20207;-36
2022/04/24 01:12:39;;;;;;;14.93;9.97;;;;;;;;;;5030715;28;20198;-32
2022/04/24 01:15:06;;;;;;;12.17;8.87;;;;;;;;;;5024195;28;20227;-38
2022/04/24 01:17:35;;;;;;;13.70;9.77;;;;;;;;;;5030106;28;20224;-40
2022/04/24 01:20:02;;;;;;;13.13;9.17;;;;;;;;;;5024611;28;20234;-35
2022/04/24 01:22:31;;;;;;;13.13;9.27;;;;;;;;;;5026021;28;20203;-35
2022/04/24 01:25:00;;;;;;;13.47;9.63;;;;;;;;;;5023992;28;20653;-42
2022/04/24 01:27:27;;;;;;;11.33;7.97;;;;;;;;;;5015263;28;20229;-33
2022/04/24 01:29:54;;;;;;;14.23;9.10;;;;;;;;;;5009375;28;20234;-38
2022/04/24 01:32:21;;;;;;;11.87;7.93;;;;;;;;;;5021133;28;20222;-34
2022/04/24 01:34:48;;;;;;;11.07;8.00;;;;;;;;;;5021783;28;20214;-37
2022/04/24 01:37:15;;;;;;;13.03;8.83;;;;;;;;;;5023793;28;20202;-39
2022/04/24 01:39:44;;;;;;;12.60;9.60;;;;;;;;;;5022974;28;20213;-40
2022/04/24 01:42:11;;;;;;;11.10;8.20;;;;;;;;;;5010793;28;20214;-37
2022/04/24 01:44:38;;;;;;;10.73;7.53;;;;;;;;;;5009750;28;20203;-37
2022/04/24 01:47:05;;;;;;;11.17;8.23;;;;;;;;;;5016831;28;20223;-35
2022/04/24 01:49:32;;;;;;;9.60;7.43;;;;;;;;;;5013709;28;20203;-39
2022/04/24 01:52:00;;;;;;;11.90;7.60;;;;;;;;;;5012709;28;20289;-38
2022/04/24 01:54:27;;;;;;;11.17;7.87;;;;;;;;;;5014287;28;20222;-38
2022/04/24 01:56:55;;;;;;;12.37;8.40;;;;;;;;;;5029924;28;20234;-39
2022/04/24 01:59:22;;;;;;;9.50;7.90;;;;;;;;;;5030541;28;20221;-38
2022/04/24 02:01:49;;;;;;;11.97;9.43;;;;;;;;;;5024308;28;20207;-39
2022/04/24 02:04:18;;;;;;;10.10;7.47;;;;;;;;;;5012157;28;20199;-35
2022/04/24 02:06:46;;;;;;;13.83;8.83;;;;;;;;;;5025478;28;20241;-39
2022/04/24 02:09:33;;;;;;;12.37;8.03;;;;;;;;;;5019303;28;20203;-38
2022/04/24 02:12:02;;;;;;;10.57;7.73;;;;;;;;;;5011445;28;20325;-39
2022/04/24 02:14:29;;;;;;;11.17;8.63;;;;;;;;;;5016167;28;20230;-39
2022/04/24 02:16:56;;;;;;;14.53;9.23;;;;;;;;;;5011765;28;20227;-38
2022/04/24 02:19:24;;;;;;;12.33;8.00;;;;;;;;;;5025522;28;20210;-36
2022/04/24 02:21:51;;;;;;;11.57;8.43;;;;;;;;;;5030454;28;20217;-40
2022/04/24 02:24:18;;;;;;;10.53;8.13;;;;;;;;;;5025250;28;20207;-41
2022/04/24 02:26:45;;;;;;;9.37;7.83;;;;;;;;;;5026328;28;20226;-32
2022/04/24 02:29:13;;;;;;;10.30;7.27;;;;;;;;;;5033354;28;20202;-35
2022/04/24 02:31:41;;;;;;;10.10;8.23;;;;;;;;;;5033592;28;20212;-36
2022/04/24 02:34:08;;;;;;;10.23;7.77;;;;;;;;;;5030418;28;20231;-40
2022/04/24 02:36:35;;;;;;;11.60;8.60;;;;;;;;;;5025917;28;20227;-38
2022/04/24 02:39:02;;;;;;;12.10;8.67;;;;;;;;;;5021571;28;20265;-38
2022/04/24 02:41:29;;;;;;;11.57;8.30;;;;;;;;;;5013549;28;20207;-38
2022/04/24 02:43:56;;;;;;;11.70;7.83;;;;;;;;;;5020124;28;20195;-39
2022/04/24 02:46:25;;;;;;;11.03;8.67;;;;;;;;;;5013860;28;20214;-42
2022/04/24 02:48:52;;;;;;;11.93;8.67;;;;;;;;;;5010744;28;20211;-38
2022/04/24 02:51:19;;;;;;;9.80;8.10;;;;;;;;;;5012774;28;20208;-38
2022/04/24 02:53:46;;;;;;;10.57;7.70;;;;;;;;;;5012747;28;20211;-34
2022/04/24 02:56:13;;;;;;;10.37;8.53;;;;;;;;;;5011947;28;20228;-40
2022/04/24 02:58:40;;;;;;;12.23;8.37;;;;;;;;;;5022867;28;20226;-37
2022/04/24 03:01:08;;;;;;;10.93;8.50;;;;;;;;;;5033300;28;20202;-39
2022/04/24 03:03:37;;;;;;;13.73;9.80;;;;;;;;;;5019743;28;20211;-42
2022/04/24 03:06:05;;;;;;;13.23;9.23;;;;;;;;;;5015430;28;20243;-41
2022/04/24 03:08:32;;;;;;;12.63;9.10;;;;;;;;;;5013137;28;20207;-39
2022/04/24 03:10:59;;;;;;;11.47;8.97;;;;;;;;;;5017676;28;20282;-41
2022/04/24 03:13:26;;;;;;;11.23;8.67;;;;;;;;;;5032278;28;20210;-41
2022/04/24 03:15:54;;;;;;;10.30;8.20;;;;;;;;;;5012729;28;20230;-33
2022/04/24 03:18:21;;;;;;;12.73;9.83;;;;;;;;;;5012923;28;20210;-37
2022/04/24 03:20:49;;;;;;;11.23;8.97;;;;;;;;;;5018378;28;20260;-35
2022/04/24 03:23:16;;;;;;;12.03;9.43;;;;;;;;;;5025154;28;20230;-38
2022/04/24 03:25:43;;;;;;;13.20;9.93;;;;;;;;;;5013126;28;20219;-41
2022/04/24 03:28:11;;;;;;;11.47;8.63;;;;;;;;;;5026443;28;20204;-37
2022/04/24 03:30:38;;;;;;;11.93;9.40;;;;;;;;;;5012641;28;20203;-35
2022/04/24 03:33:05;;;;;;;11.50;9.43;;;;;;;;;;5012384;28;20208;-34
2022/04/24 03:35:32;;;;;;;12.17;9.00;;;;;;;;;;5012498;28;20261;-30
2022/04/24 03:38:01;;;;;;;13.67;9.73;;;;;;;;;;5024380;28;20206;-38
2022/04/24 03:40:28;;;;;;;12.07;9.33;;;;;;;;;;5025299;28;20211;-42
2022/04/24 03:42:55;;;;;;;12.33;9.50;;;;;;;;;;5015051;28;20229;-35
2022/04/24 03:45:22;;;;;;;11.63;8.43;;;;;;;;;;5024522;28;20226;-34
2022/04/24 03:47:51;;;;;;;10.77;8.70;;;;;;;;;;5011827;28;20211;-30
2022/04/24 03:50:20;;;;;;;11.53;9.00;;;;;;;;;;5017886;28;20294;-33
2022/04/24 03:52:47;;;;;;;15.00;9.80;;;;;;;;;;5023447;28;20199;-39
2022/04/24 03:55:15;;;;;;;15.83;9.90;;;;;;;;;;5023644;28;20227;-40
2022/04/24 03:57:42;;;;;;;15.20;9.93;;;;;;;;;;5018179;28;20214;-38
2022/04/24 04:00:10;;;;;;;12.70;9.33;;;;;;;;;;5011905;28;20207;-35
2022/04/24 04:02:43;;;;;;;14.80;9.93;;;;;;;;;;5012115;28;20207;-42
2022/04/24 04:05:10;;;;;;;11.97;8.93;;;;;;;;;;5015579;28;20247;-37
2022/04/24 04:07:37;;;;;;;12.10;9.07;;;;;;;;;;5028424;28;20222;-38
2022/04/24 04:10:04;;;;;;;13.00;9.43;;;;;;;;;;5025033;28;20318;-39
2022/04/24 04:12:33;;;;;;;15.20;10.00;;;;;;;;;;5022409;28;20219;-38
2022/04/24 04:15:01;;;;;;;13.30;10.60;;;;;;;;;;5031027;28;20226;-41
2022/04/24 04:17:29;;;;;;;13.60;9.93;;;;;;;;;;5031525;28;20260;-34
2022/04/24 04:19:56;;;;;;;14.50;10.47;;;;;;;;;;5023753;28;20204;-41
2022/04/24 04:22:23;;;;;;;14.23;10.77;;;;;;;;;;5017598;28;20211;-36
2022/04/24 04:24:50;;;;;;;12.73;9.87;;;;;;;;;;5008290;28;20200;-39
2022/04/24 04:27:17;;;;;;;13.20;10.40;;;;;;;;;;5022074;28;20214;-39
2022/04/24 04:29:49;;;;;;;17.83;10.50;;;;;;;;;;5025965;28;20206;-41
2022/04/24 04:32:16;;;;;;;14.83;10.60;;;;;;;;;;5017623;28;20210;-36
2022/04/24 04:34:43;;;;;;;16.40;11.13;;;;;;;;;;5019395;28;20266;-39
2022/04/24 04:37:10;;;;;;;13.80;10.47;;;;;;;;;;5031028;28;20254;-38
2022/04/24 04:39:37;;;;;;;16.17;11.40;;;;;;;;;;5026219;28;20202;-40
2022/04/24 04:42:05;;;;;;;15.37;11.27;;;;;;;;;;5016595;28;20210;-35
2022/04/24 04:44:32;;;;;;;18.53;11.63;;;;;;;;;;5026242;28;20202;-40
2022/04/24 04:47:00;;;;;;;12.73;9.33;;;;;;;;;;5042535;28;20222;-33
2022/04/24 04:49:28;;;;;;;7.93;6.43;;;;;;;;;;5046631;28;20213;-39
2022/04/24 04:51:55;;;;;;;5.30;2.90;;;;;;;;;;5029797;28;20289;-38
2022/04/24 04:54:22;;;;;;;2.60;1.80;;;;;;;;;;5022007;28;20206;-38
2022/04/24 04:56:49;;;;;;;2.97;1.70;;;;;;;;;;5020621;28;20238;-38
2022/04/24 04:59:16;;;;;;;2.83;1.80;;;;;;;;;;5019187;28;20203;-40
2022/04/24 05:01:43;;;;;;;2.37;1.83;;;;;;;;;;5028851;28;20206;-34
2022/04/24 05:04:12;;;;;;;1.70;1.60;;;;;;;;;;5030998;28;20204;-40
2022/04/24 05:06:39;;;;;;;2.60;1.30;;;;;;;;;;5017243;28;20230;-41
2022/04/24 05:09:07;;;;;;;1.60;1.50;;;;;;;;;;5023478;28;20203;-35
2022/04/24 05:11:34;;;;;;;1.67;1.37;;;;;;;;;;5017630;28;20207;-39
2022/04/24 05:14:01;;;;;;;1.90;1.10;;;;;;;;;;5026633;28;20565;-34
2022/04/24 05:16:29;;;;;;;2.13;1.27;;;;;;;;;;5041805;28;20250;-36
2022/04/24 05:18:56;;;;;;;1.30;1.03;;;;;;;;;;5026764;28;20203;-32
2022/04/24 05:21:24;;;;;;;1.67;1.37;;;;;;;;;;5021689;28;20221;-36
2022/04/24 05:23:52;;;;;;;0.90;0.90;;;;;;;;;;5037940;28;20216;-35
2022/04/24 05:26:19;;;;;;;2.43;1.37;;;;;;;;;;5021151;28;20214;-40
2022/04/24 05:28:47;;;;;;;1.40;1.30;;;;;;;;;;5025826;28;20226;-39
2022/04/24 05:31:15;;;;;;;1.50;1.30;;;;;;;;;;5024286;28;20221;-35
2022/04/24 05:33:42;;;;;;;1.13;1.13;;;;;;;;;;5042810;28;20208;-34
2022/04/24 05:36:09;;;;;;;1.17;0.90;;;;;;;;;;5018953;28;20233;-36
2022/04/24 05:38:37;;;;;;;1.70;1.03;;;;;;;;;;5016202;28;20202;-39
2022/04/24 05:41:05;;;;;;;1.63;0.90;;;;;;;;;;5021810;28;20211;-39
2022/04/24 05:43:32;;;;;;;0.70;0.70;;;;;;;;;;5015222;28;20271;-37
2022/04/24 05:45:59;;;;;;;0.50;0.50;;;;;;;;;;5021218;28;20232;-38
2022/04/24 05:48:26;;;;;;;1.50;0.77;;;;;;;;;;5021790;28;20207;-38
2022/04/24 05:50:53;;;;;;;3.37;1.20;;;;;;;;;;5015370;28;20203;-41
2022/04/24 05:53:20;;;;;;;0.40;0.40;;;;;;;;;;5015536;28;20211;-34
2022/04/24 05:55:49;;;;;;;0.70;0.43;;;;;;;;;;5010901;28;20237;-40
2022/04/24 05:58:16;;;;;;;0.40;0.40;;;;;;;;;;5032297;28;20215;-35
2022/04/24 06:00:43;;;;;;;0.53;0.53;;;;;;;;;;5017243;28;20203;-38
2022/04/24 06:03:10;;;;;;;2.80;0.60;;;;;;;;;;5021343;28;20209;-35
2022/04/24 06:05:38;;;;;;;0.40;0.40;;;;;;;;;;5038111;28;20227;-36
2022/04/24 06:08:06;;;;;;;0.30;0.30;;;;;;;;;;5035997;28;20226;-38
2022/04/24 06:10:33;;;;;;;0.47;0.37;;;;;;;;;;5028011;28;20223;-34
2022/04/24 06:13:02;;;;;;;0.30;0.30;;;;;;;;;;5027403;28;20234;-39
2022/04/24 06:15:29;;;;;;;0.40;0.40;;;;;;;;;;5019651;28;20238;-37
2022/04/24 06:17:57;;;;;;;1.90;0.50;;;;;;;;;;5016326;28;20229;-38
2022/04/24 06:20:25;;;;;;;1.03;0.40;;;;;;;;;;5022381;28;20217;-38
2022/04/24 06:22:53;;;;;;;0.83;0.40;;;;;;;;;;5023702;28;20203;-43
2022/04/24 06:25:21;;;;;;;0.30;0.30;;;;;;;;;;5024412;28;20231;-41
2022/04/24 06:27:49;;;;;;;0.43;0.40;;;;;;;;;;5031974;28;20207;-37
2022/04/24 06:30:18;;;;;;;0.53;0.50;;;;;;;;;;5036342;28;20203;-40
2022/04/24 06:32:46;;;;;;;1.83;0.60;;;;;;;;;;5036001;28;20214;-43
2022/04/24 06:35:14;;;;;;;0.70;0.40;;;;;;;;;;5025676;28;20231;-40
2022/04/24 06:37:41;;;;;;;1.60;0.50;;;;;;;;;;5027106;28;20202;-37
2022/04/24 06:40:09;;;;;;;0.53;0.40;;;;;;;;;;5020530;28;20199;-39
2022/04/24 06:42:37;;;;;;;0.47;0.47;;;;;;;;;;5024723;28;20202;-38
2022/04/24 06:45:04;;;;;;;4.23;0.70;;;;;;;;;;5020355;28;20210;-44
2022/04/24 06:47:33;;;;;;;0.87;0.30;;;;;;;;;;5046057;28;20202;-38
2022/04/24 06:50:00;;;;;;;1.70;0.70;;;;;;;;;;5030269;28;20208;-38
2022/04/24 06:52:27;;;;;;;0.47;0.30;;;;;;;;;;5026952;28;20213;-38
2022/04/24 06:54:54;;;;;;;0.40;0.40;;;;;;;;;;5022287;28;20207;-44
2022/04/24 06:57:21;;;;;;;0.30;0.30;;;;;;;;;;5029857;28;20234;-40
2022/04/24 06:59:48;;;;;;;2.27;0.50;;;;;;;;;;5051502;28;20213;-37
2022/04/24 07:02:15;;;;;;;1.90;0.50;;;;;;;;;;5035662;28;20203;-38
2022/04/24 07:04:44;;;;;;;0.50;0.50;;;;;;;;;;5049120;28;20202;-38
2022/04/24 07:07:11;;;;;;;0.40;0.40;;;;;;;;;;5029595;28;20256;-39
2022/04/24 07:09:39;;;;;;;0.40;0.40;;;;;;;;;;5014932;28;20205;-39
2022/04/24 07:12:16;;;;;;;0.50;0.50;;;;;;;;;;5016949;28;20543;-40
2022/04/24 07:14:54;;;;;;;1.30;0.50;;;;;;;;;;5016061;28;20203;-38
2022/04/24 07:17:23;;;;;;;0.70;0.57;;;;;;;;;;5013130;28;20219;-34
2022/04/24 07:19:51;;;;;;;1.03;0.53;;;;;;;;;;5013247;28;20223;-39
2022/04/24 07:22:19;;;;;;;0.30;0.30;;;;;;;;;;5021365;28;20208;-38
2022/04/24 07:24:46;;;;;;;0.30;0.30;;;;;;;;;;5028746;28;20213;-42
2022/04/24 07:27:13;;;;;;;0.50;0.30;;;;;;;;;;5024055;28;20207;-40
2022/04/24 07:29:42;;;;;;;0.40;0.40;;;;;;;;;;5021330;28;20219;-43
2022/04/24 07:32:10;;;;;;;0.23;0.23;;;;;;;;;;5015185;28;20207;-42
2022/04/24 07:34:37;;;;;;;0.20;0.20;;;;;;;;;;5016088;28;20270;-39
2022/04/24 07:37:05;;;;;;;0.93;0.40;;;;;;;;;;5029780;28;20313;-39
2022/04/24 07:39:32;;;;;;;0.40;0.30;;;;;;;;;;5032439;28;20199;-39
2022/04/24 07:41:59;;;;;;;2.90;0.50;;;;;;;;;;5017113;28;20231;-43
2022/04/24 07:44:27;;;;;;;0.30;0.30;;;;;;;;;;5027759;28;20205;-38
2022/04/24 07:46:54;;;;;;;0.30;0.30;;;;;;;;;;5031769;28;20227;-41
2022/04/24 07:49:21;;;;;;;0.30;0.30;;;;;;;;;;5015149;28;20298;-36
2022/04/24 07:51:49;;;;;;;0.30;0.30;;;;;;;;;;5026773;28;20207;-36
2022/04/24 07:54:17;;;;;;;0.40;0.40;;;;;;;;;;5012124;28;20250;-37
2022/04/24 07:56:46;;;;;;;1.53;0.60;;;;;;;;;;5014889;28;20234;-37
2022/04/24 07:59:13;;;;;;;0.93;0.77;;;;;;;;;;5020403;28;20207;-38
2022/04/24 08:01:40;;;;;;;0.47;0.47;;;;;;;;;;5018761;28;20199;-39
2022/04/24 08:04:07;;;;;;;0.47;0.43;;;;;;;;;;5036002;28;20214;-38
2022/04/24 08:06:34;;;;;;;0.67;0.63;;;;;;;;;;5021750;28;20233;-37
2022/04/24 08:09:04;;;;;;;0.53;0.43;;;;;;;;;;5014577;28;20207;-37
2022/04/24 08:11:32;;;;;;;0.40;0.40;;;;;;;;;;5022160;28;20202;-35
2022/04/24 08:13:59;;;;;;;0.63;0.30;;;;;;;;;;5013282;28;20207;-40
2022/04/24 08:16:27;;;;;;;0.30;0.30;;;;;;;;;;5027676;28;20229;-38
2022/04/24 08:18:54;;;;;;;1.23;0.50;;;;;;;;;;5026266;28;20210;-40
2022/04/24 08:21:23;;;;;;;1.80;0.40;;;;;;;;;;5023276;28;20203;-34
2022/04/24 08:23:50;;;;;;;0.20;0.20;;;;;;;;;;5047344;28;20209;-37
2022/04/24 08:26:18;;;;;;;0.40;0.40;;;;;;;;;;5024931;28;20222;-42
2022/04/24 08:28:46;;;;;;;0.87;0.40;;;;;;;;;;5022098;28;20284;-39
2022/04/24 08:31:14;;;;;;;0.70;0.50;;;;;;;;;;5026324;28;20209;-36
2022/04/24 08:33:41;;;;;;;0.40;0.40;;;;;;;;;;5025962;28;20203;-35
2022/04/24 08:36:08;;;;;;;0.67;0.57;;;;;;;;;;5029408;28;20225;-34
2022/04/24 08:38:35;;;;;;;0.50;0.50;;;;;;;;;;5034155;28;20211;-36
2022/04/24 08:41:22;;;;;;;1.53;0.80;;;;;;;;;;5019580;28;20218;-35
2022/04/24 08:43:50;;;;;;;0.33;0.30;;;;;;;;;;5022862;28;20264;-37
2022/04/24 08:46:17;;;;;;;0.60;0.50;;;;;;;;;;5032049;28;20236;-35
2022/04/24 08:48:47;;;;;;;0.40;0.40;;;;;;;;;;5025139;28;20215;-37
2022/04/24 08:51:14;;;;;;;0.40;0.40;;;;;;;;;;5024405;28;20205;-39
2022/04/24 08:53:42;;;;;;;0.30;0.30;;;;;;;;;;5032290;28;20285;-34
2022/04/24 08:56:09;;;;;;;0.30;0.30;;;;;;;;;;5026627;28;20241;-36
2022/04/24 08:58:36;;;;;;;0.87;0.40;;;;;;;;;;5028133;28;20215;-35
2022/04/24 09:01:04;;;;;;;0.20;0.20;;;;;;;;;;5032163;28;20590;-36
2022/04/24 09:03:32;;;;;;;1.60;0.33;;;;;;;;;;5044770;28;20202;-41
2022/04/24 09:05:59;;;;;;;0.40;0.40;;;;;;;;;;5022479;28;20309;-37
2022/04/24 09:08:26;;;;;;;0.20;0.20;;;;;;;;;;5016740;28;20317;-35
2022/04/24 09:10:54;;;;;;;0.33;0.30;;;;;;;;;;5018489;28;20298;-35
2022/04/24 09:13:31;;;;;;;0.77;0.27;;;;;;;;;;5019998;28;20222;-38
2022/04/24 09:15:59;;;;;;;0.67;0.27;;;;;;;;;;5018255;28;20225;-37
2022/04/24 09:18:39;;;;;;;0.73;0.53;;;;;;;;;;5026789;28;20198;-38
2022/04/24 09:21:06;;;;;;;0.40;0.40;;;;;;;;;;5026975;28;20206;-34
2022/04/24 09:23:37;;;;;;;0.50;0.27;;;;;;;;;;5027678;28;20202;-38
2022/04/24 09:26:04;;;;;;;1.70;0.63;;;;;;;;;;5023974;28;20226;-32
2022/04/24 09:28:37;;;;;;;1.17;0.30;;;;;;;;;;5024219;28;20209;-35
2022/04/24 09:31:05;;;;;;;0.53;0.53;;;;;;;;;;5025544;28;20211;-35
2022/04/24 09:33:36;;;;;;;0.40;0.40;;;;;;;;;;5026031;28;20238;-40
2022/04/24 09:36:06;;;;;;;0.50;0.50;;;;;;;;;;5027374;28;20277;-39
2022/04/24 09:38:40;;;;;;;0.40;0.40;;;;;;;;;;5029717;28;20261;-35
2022/04/24 09:41:15;;;;;;;0.30;0.30;;;;;;;;;;5025280;28;20245;-37
2022/04/24 09:43:42;;;;;;;0.30;0.30;;;;;;;;;;5021690;28;20230;-33
2022/04/24 09:46:10;;;;;;;0.60;0.60;;;;;;;;;;5026553;28;20226;-34
2022/04/24 09:48:37;;;;;;;0.40;0.40;;;;;;;;;;5027690;28;20210;-32
2022/04/24 09:51:05;;;;;;;0.40;0.40;;;;;;;;;;5024080;28;20226;-38
2022/04/24 09:53:33;;;;;;;0.60;0.60;;;;;;;;;;5018789;28;20227;-39
2022/04/24 09:56:02;;;;;;;0.60;0.60;;;;;;;;;;5025276;28;20226;-36
2022/04/24 09:58:29;;;;;;;0.40;0.40;;;;;;;;;;5024947;28;20226;-35
2022/04/24 10:00:57;;;;;;;0.50;0.50;;;;;;;;;;5032478;28;20260;-31
2022/04/24 10:03:31;;;;;;;1.70;0.57;;;;;;;;;;5022563;28;20222;-35
2022/04/24 10:05:58;;;;;;;0.60;0.60;;;;;;;;;;5023826;28;20220;-33
2022/04/24 10:08:27;;;;;;;0.60;0.50;;;;;;;;;;5040441;28;20216;-38
2022/04/24 10:10:54;;;;;;;0.60;0.60;;;;;;;;;;5013688;28;20211;-38
2022/04/24 10:13:23;;;;;;;0.97;0.50;;;;;;;;;;5024748;28;20222;-35
2022/04/24 10:15:54;;;;;;;1.83;1.30;;;;;;;;;;5030582;28;20230;-39
2022/04/24 10:18:29;;;;;;;0.80;0.80;;;;;;;;;;5029713;28;20229;-38
2022/04/24 10:21:11;;;;;;;1.20;0.90;;;;;;;;;;5018070;28;20226;-37
2022/04/24 10:23:40;;;;;;;1.37;0.97;;;;;;;;;;5009201;28;20254;-37
2022/04/24 10:26:17;;;;;;;0.70;0.70;;;;;;;;;;5015739;28;20258;-35
2022/04/24 10:28:46;;;;;;;0.70;0.70;;;;;;;;;;5020058;28;20202;-37
2022/04/24 10:31:14;;;;;;;0.70;0.70;;;;;;;;;;5030646;28;20249;-37
2022/04/24 10:33:51;;;;;;;1.43;1.00;;;;;;;;;;5032638;28;20214;-41
2022/04/24 10:36:18;;;;;;;0.80;0.80;;;;;;;;;;5018476;28;20301;-31
2022/04/24 10:38:50;;;;;;;1.00;0.90;;;;;;;;;;5030158;28;20210;-34
2022/04/24 10:41:18;;;;;;;1.00;1.00;;;;;;;;;;5026592;28;20209;-37
2022/04/24 10:43:48;;;;;;;1.07;0.73;;;;;;;;;;5030217;28;20221;-38
2022/04/24 10:46:19;;;;;;;1.17;0.80;;;;;;;;;;5029857;28;20229;-36
2022/04/24 10:48:47;;;;;;;0.50;0.50;;;;;;;;;;5030755;28;20207;-35
2022/04/24 10:51:15;;;;;;;0.63;0.63;;;;;;;;;;5041042;28;20198;-33
2022/04/24 10:53:53;;;;;;;1.00;0.90;;;;;;;;;;5017369;28;20199;-33
2022/04/24 10:56:20;;;;;;;0.67;0.67;;;;;;;;;;5014031;28;20230;-41
2022/04/24 10:58:50;;;;;;;1.07;1.00;;;;;;;;;;5017489;28;20210;-39
2022/04/24 11:01:18;;;;;;;1.23;0.93;;;;;;;;;;5026701;28;20261;-37
2022/04/24 11:03:46;;;;;;;0.90;0.90;;;;;;;;;;5025296;28;20302;-34
2022/04/24 11:06:20;;;;;;;1.00;0.97;;;;;;;;;;5023615;28;20223;-42
2022/04/24 11:08:47;;;;;;;1.73;0.60;;;;;;;;;;5026937;28;20213;-37
2022/04/24 11:11:16;;;;;;;0.60;0.60;;;;;;;;;;5030029;28;20213;-42
2022/04/24 11:13:45;;;;;;;0.83;0.83;;;;;;;;;;5027414;28;20226;-39
2022/04/24 11:16:12;;;;;;;0.63;0.63;;;;;;;;;;5020606;28;20219;-40
2022/04/24 11:18:40;;;;;;;0.83;0.60;;;;;;;;;;5028607;28;20222;-39
2022/04/24 11:21:07;;;;;;;1.27;0.97;;;;;;;;;;5027594;28;20294;-36
2022/04/24 11:23:35;;;;;;;0.83;0.83;;;;;;;;;;5032029;28;20215;-43
2022/04/24 11:26:05;;;;;;;0.90;0.90;;;;;;;;;;5029047;28;20227;-37
2022/04/24 11:28:41;;;;;;;0.70;0.70;;;;;;;;;;5026338;28;20220;-34
2022/04/24 11:31:13;;;;;;;2.00;0.97;;;;;;;;;;5019748;28;20298;-38
2022/04/24 11:33:53;;;;;;;0.70;0.70;;;;;;;;;;5033777;28;20285;-39
2022/04/24 11:36:20;;;;;;;1.50;1.20;;;;;;;;;;5033030;28;20227;-40
2022/04/24 11:38:47;;;;;;;1.10;1.00;;;;;;;;;;5022518;28;20495;-38
2022/04/24 11:41:15;;;;;;;0.80;0.80;;;;;;;;;;5021124;28;20203;-38
2022/04/24 11:43:43;;;;;;;0.73;0.73;;;;;;;;;;5024210;28;20203;-35
2022/04/24 11:51:41;;;;;;;0.93;0.70;;;;;;;;;;5017287;28;20228;-41
2022/04/24 11:54:16;;;;;;;1.10;0.90;;;;;;;;;;5019418;28;20214;-37
2022/04/24 11:56:44;;;;;;;1.27;1.03;;;;;;;;;;5021640;28;20242;-36
2022/04/24 11:59:16;;;;;;;2.00;0.73;;;;;;;;;;5034980;28;20209;-42
2022/04/24 12:01:44;;;;;;;1.07;0.97;;;;;;;;;;5040381;28;20199;-38
2022/04/24 12:04:17;;;;;;;0.97;0.70;;;;;;;;;;5025059;28;20253;-35
2022/04/24 12:06:44;;;;;;;1.27;0.77;;;;;;;;;;5022532;28;20238;-34
2022/04/24 12:09:12;;;;;;;0.90;0.90;;;;;;;;;;5022740;28;20206;-34
2022/04/24 12:11:39;;;;;;;0.80;0.73;;;;;;;;;;5025269;28;20212;-38
2022/04/24 12:14:10;;;;;;;1.40;0.90;;;;;;;;;;5027574;28;20210;-38
2022/04/24 12:16:41;;;;;;;1.13;0.90;;;;;;;;;;5032730;28;20223;-36
2022/04/24 12:19:10;;;;;;;0.93;0.70;;;;;;;;;;5032658;28;20217;-38
2022/04/24 12:21:45;;;;;;;0.70;0.70;;;;;;;;;;5027907;28;20225;-40
2022/04/24 12:24:13;;;;;;;1.23;0.70;;;;;;;;;;5026469;28;20557;-33
2022/04/24 12:26:46;;;;;;;0.97;0.77;;;;;;;;;;5017691;28;20233;-35
2022/04/24 12:29:15;;;;;;;0.70;0.70;;;;;;;;;;5019152;28;20333;-34
2022/04/24 12:31:44;;;;;;;0.60;0.60;;;;;;;;;;5017905;28;20210;-39
2022/04/24 12:34:11;;;;;;;1.23;1.20;;;;;;;;;;5035828;28;20198;-32
2022/04/24 12:36:48;;;;;;;1.37;1.07;;;;;;;;;;5031434;28;20241;-37
2022/04/24 12:39:15;;;;;;;0.70;0.70;;;;;;;;;;5029301;28;20206;-36
2022/04/24 12:41:42;;;;;;;0.50;0.50;;;;;;;;;;5019311;28;20213;-35
2022/04/24 12:44:09;;;;;;;1.07;0.70;;;;;;;;;;5026267;28;20199;-35
2022/04/24 12:46:37;;;;;;;1.97;0.83;;;;;;;;;;5049955;28;20230;-36
2022/04/24 12:49:07;;;;;;;0.60;0.60;;;;;;;;;;5040463;28;20199;-40
2022/04/24 12:51:34;;;;;;;0.90;0.47;;;;;;;;;;5014985;28;20203;-36
2022/04/24 12:54:03;;;;;;;1.27;0.57;;;;;;;;;;5025580;28;20201;-36
2022/04/24 12:56:30;;;;;;;0.30;0.30;;;;;;;;;;5028629;28;20230;-34
2022/04/24 12:58:58;;;;;;;0.30;0.30;;;;;;;;;;5015869;28;20222;-38
2022/04/24 13:01:25;;;;;;;0.83;0.40;;;;;;;;;;5013982;28;20295;-36
2022/04/24 13:03:54;;;;;;;0.40;0.40;;;;;;;;;;5012603;28;20297;-36
2022/04/24 13:06:25;;;;;;;0.40;0.40;;;;;;;;;;5020166;28;20257;-33
2022/04/24 13:08:53;;;;;;;0.30;0.30;;;;;;;;;;5032435;28;20213;-36
2022/04/24 13:11:23;;;;;;;1.10;0.60;;;;;;;;;;5022935;28;20215;-36
2022/04/24 13:13:50;;;;;;;0.60;0.60;;;;;;;;;;5031017;28;20202;-39
2022/04/24 13:19:02;;;;;;;1.60;0.50;;;;;;;;;;5021531;28;20237;-39
2022/04/24 13:21:30;;;;;;;0.47;0.40;;;;;;;;;;5014723;28;20203;-38
2022/04/24 13:23:57;;;;;;;0.40;0.40;;;;;;;;;;5013013;28;20218;-39
2022/04/24 13:26:25;;;;;;;0.30;0.30;;;;;;;;;;5015545;28;20227;-40
2022/04/24 13:28:52;;;;;;;0.57;0.40;;;;;;;;;;5020267;28;20279;-40
2022/04/24 13:31:19;;;;;;;0.30;0.30;;;;;;;;;;5027719;28;20207;-38
2022/04/24 13:33:47;;;;;;;0.40;0.40;;;;;;;;;;5033576;28;20216;-32
2022/04/24 13:36:15;;;;;;;0.70;0.60;;;;;;;;;;5019658;28;20321;-35
2022/04/24 13:38:46;;;;;;;0.47;0.40;;;;;;;;;;5014828;28;20230;-40
2022/04/24 13:41:13;;;;;;;0.43;0.23;;;;;;;;;;5020028;28;20208;-34
2022/04/24 13:43:41;;;;;;;0.30;0.30;;;;;;;;;;5020762;28;20202;-34
2022/04/24 13:46:10;;;;;;;0.50;0.50;;;;;;;;;;5021050;28;20223;-38
2022/04/24 13:48:38;;;;;;;1.40;0.50;;;;;;;;;;5014323;28;20878;-30
2022/04/24 13:51:06;;;;;;;0.83;0.30;;;;;;;;;;5037237;28;20297;-36
2022/04/24 13:53:33;;;;;;;0.50;0.40;;;;;;;;;;5023716;28;20222;-33
2022/04/24 13:56:02;;;;;;;0.40;0.40;;;;;;;;;;5022350;28;20227;-36
2022/04/24 13:58:30;;;;;;;0.40;0.40;;;;;;;;;;5019214;28;20234;-38
2022/04/24 14:00:57;;;;;;;0.40;0.40;;;;;;;;;;5010984;28;20253;-41
2022/04/24 14:03:25;;;;;;;0.50;0.50;;;;;;;;;;5015761;28;20290;-37
2022/04/24 14:05:53;;;;;;;0.40;0.37;;;;;;;;;;5014018;28;20306;-36
2022/04/24 14:08:24;;;;;;;0.60;0.60;;;;;;;;;;5017951;28;20199;-35
2022/04/24 14:10:52;;;;;;;0.40;0.40;;;;;;;;;;5027930;28;20329;-38
2022/04/24 14:13:20;;;;;;;0.73;0.60;;;;;;;;;;5012704;28;20210;-32
2022/04/24 14:15:47;;;;;;;0.40;0.40;;;;;;;;;;5022728;28;20226;-37
2022/04/24 14:18:15;;;;;;;1.10;0.70;;;;;;;;;;5029280;28;20227;-34
2022/04/24 14:20:42;;;;;;;0.70;0.70;;;;;;;;;;5016383;28;20261;-37
2022/04/24 14:23:09;;;;;;;1.23;0.60;;;;;;;;;;5015293;28;20206;-38
2022/04/24 14:25:37;;;;;;;0.57;0.57;;;;;;;;;;5013984;28;20238;-35
2022/04/24 14:28:04;;;;;;;0.60;0.60;;;;;;;;;;5028537;28;20230;-40
2022/04/24 14:30:34;;;;;;;2.53;0.93;;;;;;;;;;5020018;28;20210;-38
2022/04/24 14:33:09;;;;;;;0.60;0.60;;;;;;;;;;5043354;28;20202;-38
2022/04/24 14:35:36;;;;;;;0.60;0.60;;;;;;;;;;5029865;28;20228;-36
2022/04/24 14:38:03;;;;;;;1.10;0.30;;;;;;;;;;5019228;28;20225;-35
2022/04/24 14:40:31;;;;;;;0.60;0.60;;;;;;;;;;5025903;28;20210;-33
2022/04/24 14:43:02;;;;;;;0.60;0.60;;;;;;;;;;5033049;28;20329;-34
2022/04/24 14:56:30;;;;;;;0.27;0.27;;;;;;;;;;5014872;28;20230;-39
2022/04/24 14:58:57;;;;;;;0.40;0.40;;;;;;;;;;5023378;28;20218;-38
2022/04/24 15:01:26;;;;;;;1.60;0.33;;;;;;;;;;5040579;28;20228;-37
2022/04/24 15:03:55;;;;;;;0.30;0.30;;;;;;;;;;5038987;28;20210;-32